HVN1800 VVTS-VVDL
Flight info
| Callsign | HVN1800 |
|---|---|
| Flight time | 0h 27m |
| Altitude | 19000 |
| Route | BIXEX |
| Aircraft | A21N/M-L/L |
Departure
| Time | 2026-04-16 02:03 |
|---|---|
| Airport | Tan Son Nhat International Airport (VVTS) |
Arrival
| Time | 2026-04-16 02:30 |
|---|---|
| Airport | Lien Khuong Airport (VVDL) |
| Time | Latitude | Longitude | Altitude | Speed | Heading |
|---|---|---|---|---|---|
| 2026-04-16 01:50 | 10.81512 | 106.65636 | 42 ft | 0 kts | 159° |
| 2026-04-16 01:52 | 10.81509 | 106.65637 | 42 ft | 0 kts | 159° |
| 2026-04-16 01:52 | 10.81503 | 106.65640 | 42 ft | 1 kts | 159° |
| 2026-04-16 01:52 | 10.81494 | 106.65642 | 42 ft | 1 kts | 159° |
| 2026-04-16 01:52 | 10.81482 | 106.65647 | 42 ft | 2 kts | 159° |
| 2026-04-16 01:53 | 10.81467 | 106.65654 | 42 ft | 2 kts | 147° |
| 2026-04-16 01:53 | 10.81458 | 106.65669 | 42 ft | 2 kts | 104° |
| 2026-04-16 01:53 | 10.81459 | 106.65690 | 42 ft | 3 kts | 81° |
| 2026-04-16 01:53 | 10.81466 | 106.65713 | 42 ft | 3 kts | 69° |
| 2026-04-16 01:54 | 10.81476 | 106.65741 | 42 ft | 4 kts | 69° |
| 2026-04-16 01:54 | 10.81489 | 106.65769 | 42 ft | 4 kts | 57° |
| 2026-04-16 01:54 | 10.81517 | 106.65789 | 42 ft | 5 kts | 16° |
| 2026-04-16 01:54 | 10.81554 | 106.65793 | 42 ft | 5 kts | 4° |
| 2026-04-16 01:55 | 10.81595 | 106.65796 | 42 ft | 6 kts | 4° |
| 2026-04-16 01:55 | 10.81640 | 106.65800 | 42 ft | 6 kts | 4° |
| 2026-04-16 01:55 | 10.81686 | 106.65791 | 42 ft | 7 kts | 343° |
| 2026-04-16 01:55 | 10.81735 | 106.65789 | 42 ft | 7 kts | 23° |
| 2026-04-16 01:56 | 10.81770 | 106.65828 | 42 ft | 7 kts | 64° |
| 2026-04-16 01:56 | 10.81791 | 106.65881 | 42 ft | 8 kts | 68° |
| 2026-04-16 01:56 | 10.81813 | 106.65938 | 42 ft | 8 kts | 68° |
| 2026-04-16 01:56 | 10.81835 | 106.65997 | 42 ft | 9 kts | 71° |
| 2026-04-16 01:57 | 10.81856 | 106.66060 | 42 ft | 9 kts | 70° |
| 2026-04-16 01:57 | 10.81880 | 106.66125 | 42 ft | 10 kts | 70° |
| 2026-04-16 01:57 | 10.81907 | 106.66192 | 42 ft | 10 kts | 68° |
| 2026-04-16 01:57 | 10.81933 | 106.66260 | 42 ft | 10 kts | 69° |
| 2026-04-16 01:58 | 10.81960 | 106.66332 | 42 ft | 10 kts | 69° |
| 2026-04-16 01:58 | 10.81988 | 106.66406 | 42 ft | 11 kts | 69° |
| 2026-04-16 01:58 | 10.82015 | 106.66480 | 42 ft | 11 kts | 69° |
| 2026-04-16 01:58 | 10.82044 | 106.66557 | 42 ft | 11 kts | 69° |
| 2026-04-16 01:59 | 10.82072 | 106.66633 | 42 ft | 11 kts | 69° |
| 2026-04-16 01:59 | 10.82103 | 106.66711 | 42 ft | 11 kts | 68° |
| 2026-04-16 01:59 | 10.82132 | 106.66789 | 42 ft | 12 kts | 69° |
| 2026-04-16 01:59 | 10.82162 | 106.66869 | 42 ft | 12 kts | 69° |
| 2026-04-16 02:00 | 10.82191 | 106.66946 | 42 ft | 8 kts | 68° |
| 2026-04-16 02:00 | 10.82219 | 106.66998 | 42 ft | 8 kts | 41° |
| 2026-04-16 02:00 | 10.82276 | 106.67001 | 42 ft | 8 kts | 334° |
| 2026-04-16 02:00 | 10.82319 | 106.66965 | 42 ft | 6 kts | 326° |
| 2026-04-16 02:01 | 10.82351 | 106.66947 | 42 ft | 5 kts | 313° |
| 2026-04-16 02:01 | 10.82357 | 106.66910 | 42 ft | 5 kts | 257° |
| 2026-04-16 02:01 | 10.82342 | 106.66871 | 42 ft | 6 kts | 248° |
| 2026-04-16 02:01 | 10.82333 | 106.66846 | 42 ft | 0 kts | 248° |
| 2026-04-16 02:02 | 10.82264 | 106.66670 | 42 ft | 63 kts | 248° |
| 2026-04-16 02:02 | 10.82022 | 106.66028 | 42 ft | 127 kts | 248° |
| 2026-04-16 02:02 | 10.81635 | 106.65019 | 62 ft | 177 kts | 248° |
| 2026-04-16 02:02 | 10.81161 | 106.63818 | 522 ft | 187 kts | 248° |
| 2026-04-16 02:03 | 10.80704 | 106.62615 | 1324 ft | 182 kts | 249° |
| 2026-04-16 02:03 | 10.80269 | 106.61435 | 1997 ft | 181 kts | 248° |
| 2026-04-16 02:03 | 10.79811 | 106.60195 | 2346 ft | 197 kts | 248° |
| 2026-04-16 02:04 | 10.78738 | 106.57362 | 3043 ft | 234 kts | 244° |
| 2026-04-16 02:04 | 10.77731 | 106.55996 | 3334 ft | 251 kts | 213° |
| 2026-04-16 02:04 | 10.76100 | 106.55396 | 3873 ft | 257 kts | 181° |
| 2026-04-16 02:04 | 10.74376 | 106.55786 | 4604 ft | 258 kts | 150° |
| 2026-04-16 02:05 | 10.72894 | 106.56784 | 5379 ft | 260 kts | 144° |
| 2026-04-16 02:05 | 10.71413 | 106.57837 | 6081 ft | 265 kts | 144° |
| 2026-04-16 02:05 | 10.69904 | 106.58904 | 6814 ft | 268 kts | 145° |
| 2026-04-16 02:05 | 10.68362 | 106.59983 | 7559 ft | 271 kts | 144° |
| 2026-04-16 02:06 | 10.66804 | 106.61067 | 8302 ft | 274 kts | 144° |
| 2026-04-16 02:06 | 10.65335 | 106.62272 | 9010 ft | 276 kts | 128° |
| 2026-04-16 02:06 | 10.64506 | 106.63989 | 9682 ft | 278 kts | 100° |
| 2026-04-16 02:06 | 10.64567 | 106.65938 | 10333 ft | 282 kts | 74° |
| 2026-04-16 02:07 | 10.65235 | 106.67806 | 11004 ft | 285 kts | 69° |
| 2026-04-16 02:07 | 10.65983 | 106.69701 | 11645 ft | 290 kts | 68° |
| 2026-04-16 02:07 | 10.66728 | 106.71607 | 12289 ft | 294 kts | 69° |
| 2026-04-16 02:07 | 10.67473 | 106.73541 | 12954 ft | 297 kts | 69° |
| 2026-04-16 02:08 | 10.68217 | 106.75495 | 13631 ft | 299 kts | 69° |
| 2026-04-16 02:08 | 10.68957 | 106.77451 | 14294 ft | 301 kts | 69° |
| 2026-04-16 02:09 | 10.71021 | 106.83022 | 16084 ft | 307 kts | 74° |
| 2026-04-16 02:09 | 10.71459 | 106.85113 | 16824 ft | 304 kts | 84° |
| 2026-04-16 02:09 | 10.71575 | 106.87222 | 17650 ft | 298 kts | 90° |
| 2026-04-16 02:09 | 10.71580 | 106.89314 | 18288 ft | 299 kts | 91° |
| 2026-04-16 02:10 | 10.71567 | 106.91453 | 18755 ft | 306 kts | 91° |
| 2026-04-16 02:10 | 10.71556 | 106.93665 | 18912 ft | 323 kts | 91° |
| 2026-04-16 02:10 | 10.71548 | 106.96041 | 18917 ft | 345 kts | 90° |
| 2026-04-16 02:10 | 10.71543 | 106.98537 | 18919 ft | 365 kts | 90° |
| 2026-04-16 02:11 | 10.71540 | 107.01165 | 18920 ft | 385 kts | 90° |
| 2026-04-16 02:11 | 10.71538 | 107.03971 | 18918 ft | 403 kts | 90° |
| 2026-04-16 02:11 | 10.71537 | 107.06873 | 18917 ft | 415 kts | 90° |
| 2026-04-16 02:11 | 10.71537 | 107.09804 | 18915 ft | 418 kts | 90° |
| 2026-04-16 02:12 | 10.71536 | 107.12774 | 18915 ft | 418 kts | 90° |
| 2026-04-16 02:12 | 10.71535 | 107.15711 | 18914 ft | 419 kts | 90° |
| 2026-04-16 02:12 | 10.71534 | 107.18684 | 18915 ft | 419 kts | 90° |
| 2026-04-16 02:12 | 10.71533 | 107.21619 | 18915 ft | 419 kts | 90° |
| 2026-04-16 02:13 | 10.71531 | 107.24603 | 18915 ft | 419 kts | 90° |
| 2026-04-16 02:13 | 10.71533 | 107.27546 | 18914 ft | 419 kts | 89° |
| 2026-04-16 02:13 | 10.71918 | 107.30478 | 18905 ft | 420 kts | 75° |
| 2026-04-16 02:13 | 10.73057 | 107.33189 | 18910 ft | 422 kts | 59° |
| 2026-04-16 02:14 | 10.74878 | 107.35503 | 18915 ft | 424 kts | 45° |
| 2026-04-16 02:14 | 10.77050 | 107.37537 | 18919 ft | 424 kts | 43° |
| 2026-04-16 02:14 | 10.79254 | 107.39518 | 18917 ft | 424 kts | 42° |
| 2026-04-16 02:14 | 10.81463 | 107.41499 | 18916 ft | 424 kts | 42° |
| 2026-04-16 02:15 | 10.83653 | 107.43474 | 18915 ft | 424 kts | 43° |
| 2026-04-16 02:15 | 10.85847 | 107.45464 | 18915 ft | 424 kts | 43° |
| 2026-04-16 02:15 | 10.88047 | 107.47467 | 18915 ft | 424 kts | 43° |
| 2026-04-16 02:15 | 10.90245 | 107.49473 | 18915 ft | 424 kts | 43° |
| 2026-04-16 02:16 | 10.92418 | 107.51458 | 18915 ft | 424 kts | 43° |
| 2026-04-16 02:16 | 10.94623 | 107.53476 | 18915 ft | 424 kts | 43° |
| 2026-04-16 02:16 | 10.96803 | 107.55471 | 18915 ft | 424 kts | 43° |
| 2026-04-16 02:16 | 10.98998 | 107.57481 | 18915 ft | 424 kts | 43° |
| 2026-04-16 02:17 | 11.01178 | 107.59478 | 18914 ft | 424 kts | 43° |
| 2026-04-16 02:17 | 11.03365 | 107.61483 | 18915 ft | 425 kts | 43° |
| 2026-04-16 02:17 | 11.05551 | 107.63487 | 18846 ft | 425 kts | 43° |
| 2026-04-16 02:17 | 11.07732 | 107.65484 | 18551 ft | 423 kts | 43° |
| 2026-04-16 02:18 | 11.09923 | 107.67492 | 18201 ft | 421 kts | 43° |
| 2026-04-16 02:18 | 11.12059 | 107.69450 | 17771 ft | 418 kts | 43° |
| 2026-04-16 02:18 | 11.14200 | 107.71414 | 17283 ft | 415 kts | 43° |
| 2026-04-16 02:18 | 11.16327 | 107.73368 | 16764 ft | 411 kts | 43° |
| 2026-04-16 02:19 | 11.18436 | 107.75304 | 16239 ft | 407 kts | 43° |
| 2026-04-16 02:19 | 11.20534 | 107.77232 | 15713 ft | 403 kts | 43° |
| 2026-04-16 02:19 | 11.22589 | 107.79121 | 15187 ft | 400 kts | 43° |
| 2026-04-16 02:19 | 11.24653 | 107.81016 | 14657 ft | 397 kts | 43° |
| 2026-04-16 02:20 | 11.26687 | 107.82884 | 14134 ft | 394 kts | 43° |
| 2026-04-16 02:20 | 11.28684 | 107.84719 | 13617 ft | 391 kts | 42° |
| 2026-04-16 02:20 | 11.30696 | 107.86568 | 13087 ft | 388 kts | 42° |
| 2026-04-16 02:20 | 11.32676 | 107.88388 | 12585 ft | 384 kts | 42° |
| 2026-04-16 02:21 | 11.34639 | 107.90191 | 12099 ft | 380 kts | 42° |
| 2026-04-16 02:21 | 11.36599 | 107.91994 | 11592 ft | 377 kts | 42° |
| 2026-04-16 02:21 | 11.38528 | 107.93767 | 11226 ft | 369 kts | 42° |
| 2026-04-16 02:21 | 11.40390 | 107.95480 | 11029 ft | 356 kts | 42° |
| 2026-04-16 02:22 | 11.42202 | 107.97145 | 10854 ft | 344 kts | 42° |
| 2026-04-16 02:22 | 11.43932 | 107.98736 | 10677 ft | 332 kts | 42° |
| 2026-04-16 02:22 | 11.45613 | 108.00283 | 10509 ft | 321 kts | 42° |
| 2026-04-16 02:22 | 11.47235 | 108.01777 | 10354 ft | 309 kts | 42° |
| 2026-04-16 02:23 | 11.48815 | 108.03232 | 10208 ft | 298 kts | 42° |
| 2026-04-16 02:23 | 11.50322 | 108.04620 | 10073 ft | 287 kts | 42° |
| 2026-04-16 02:23 | 11.51773 | 108.05956 | 9816 ft | 282 kts | 42° |
| 2026-04-16 02:23 | 11.53221 | 108.07291 | 9442 ft | 281 kts | 42° |
| 2026-04-16 02:24 | 11.54662 | 108.08619 | 9086 ft | 280 kts | 42° |
| 2026-04-16 02:24 | 11.56096 | 108.09941 | 8736 ft | 279 kts | 42° |
| 2026-04-16 02:24 | 11.57525 | 108.11257 | 8394 ft | 277 kts | 42° |
| 2026-04-16 02:24 | 11.58960 | 108.12578 | 8073 ft | 274 kts | 42° |
| 2026-04-16 02:25 | 11.60406 | 108.13753 | 7995 ft | 261 kts | 33° |
| 2026-04-16 02:25 | 11.61976 | 108.14683 | 7758 ft | 263 kts | 26° |
| 2026-04-16 02:25 | 11.63608 | 108.15488 | 7441 ft | 260 kts | 25° |
| 2026-04-16 02:25 | 11.65263 | 108.16222 | 7134 ft | 258 kts | 17° |
| 2026-04-16 02:26 | 11.67010 | 108.16519 | 6820 ft | 258 kts | 0° |
| 2026-04-16 02:26 | 11.68788 | 108.16461 | 6499 ft | 257 kts | 356° |
| 2026-04-16 02:26 | 11.70561 | 108.16342 | 6182 ft | 256 kts | 358° |
| 2026-04-16 02:26 | 11.72287 | 108.16657 | 6074 ft | 255 kts | 26° |
| 2026-04-16 02:27 | 11.73635 | 108.17786 | 5999 ft | 255 kts | 56° |
| 2026-04-16 02:27 | 11.74342 | 108.19402 | 5966 ft | 245 kts | 77° |
| 2026-04-16 02:27 | 11.74567 | 108.21108 | 5732 ft | 240 kts | 86° |
| 2026-04-16 02:27 | 11.74625 | 108.22798 | 5415 ft | 238 kts | 88° |
| 2026-04-16 02:28 | 11.74676 | 108.24454 | 5097 ft | 230 kts | 87° |
| 2026-04-16 02:28 | 11.74755 | 108.26034 | 4857 ft | 217 kts | 86° |
| 2026-04-16 02:28 | 11.74839 | 108.27525 | 4579 ft | 206 kts | 86° |
| 2026-04-16 02:28 | 11.74919 | 108.28946 | 4304 ft | 194 kts | 86° |
| 2026-04-16 02:29 | 11.74990 | 108.30274 | 4022 ft | 183 kts | 87° |
| 2026-04-16 02:29 | 11.75056 | 108.31509 | 3763 ft | 167 kts | 87° |
| 2026-04-16 02:29 | 11.75108 | 108.32642 | 3527 ft | 157 kts | 87° |
| 2026-04-16 02:29 | 11.75169 | 108.33749 | 3381 ft | 156 kts | 87° |
| 2026-04-16 02:30 | 11.75231 | 108.34849 | 3177 ft | 155 kts | 88° |
| 2026-04-16 02:30 | 11.75283 | 108.35848 | 3160 ft | 118 kts | 88° |
| 2026-04-16 02:30 | 11.75321 | 108.36477 | 3160 ft | 58 kts | 86° |
| 2026-04-16 02:30 | 11.75333 | 108.36736 | 3160 ft | 20 kts | 88° |
| 2026-04-16 02:31 | 11.75258 | 108.36808 | 3160 ft | 9 kts | 177° |
| 2026-04-16 02:31 | 11.75192 | 108.36811 | 3160 ft | 9 kts | 177° |
| 2026-04-16 02:31 | 11.75127 | 108.36813 | 3160 ft | 9 kts | 178° |
| 2026-04-16 02:31 | 11.75062 | 108.36826 | 3160 ft | 9 kts | 155° |
| 2026-04-16 02:32 | 11.75032 | 108.36835 | 3160 ft | 4 kts | 177° |
| 2026-04-16 02:32 | 11.75004 | 108.36836 | 3160 ft | 3 kts | 178° |
| 2026-04-16 02:32 | 11.74990 | 108.36836 | 3160 ft | 0 kts | 178° |